Time;durP1;ratioP1;P1;durP2;ratioP2;P2;SDS_P1;SDS_P2;PMS_P1;PMS_P2;Temp;Humidity;BMP_temperature;BMP_pressure;BME280_temperature;BME280_humidity;BME280_pressure;Samples;Min_cycle;Max_cycle;Signal;HPM_P1;HPM_P2
2024/03/10 00:00:26;;;;;;;;;;;;;;;-3.36;100.00;100631.23;109480;1256;73427;-55
2024/03/10 00:02:53;;;;;;;;;;;;;;;-3.36;100.00;100626.11;109515;1251;67020;-55
2024/03/10 00:05:22;;;;;;;;;;;;;;;-3.36;100.00;100626.67;109397;1254;72714;-60
2024/03/10 00:07:50;;;;;;;;;;;;;;;-3.35;100.00;100625.05;109438;1251;59866;-56
2024/03/10 00:10:17;;;;;;;;;;;;;;;-3.34;100.00;100624.67;109530;1251;59846;-54
2024/03/10 00:12:47;;;;;;;;;;;;;;;-3.32;100.00;100620.65;109578;1254;74746;-54
2024/03/10 00:15:15;;;;;;;;;;;;;;;-3.30;100.00;100619.36;109525;1251;67623;-60
2024/03/10 00:17:44;;;;;;;;;;;;;;;-3.26;100.00;100621.98;109514;1251;71441;-55
2024/03/10 00:20:11;;;;;;;;;;;;;;;-3.23;100.00;100622.83;109503;1251;59003;-56
2024/03/10 00:22:39;;;;;;;;;;;;;;;-3.20;100.00;100623.83;109509;1252;58952;-55
2024/03/10 00:25:07;;;;;;;;;;;;;;;-3.22;100.00;100624.64;109529;1251;74657;-55
2024/03/10 00:27:36;;;;;;;;;;;;;;;-3.24;100.00;100626.30;109567;1251;67088;-54
2024/03/10 00:30:05;;;;;;;;;;;;;;;-3.25;100.00;100630.29;109566;1251;72371;-54
2024/03/10 00:32:32;;;;;;;;;;;;;;;-3.25;100.00;100630.25;109559;1251;60118;-54
2024/03/10 00:35:01;;;;;;;;;;;;;;;-3.25;100.00;100634.50;109568;1251;59450;-56
2024/03/10 00:37:29;;;;;;;;;;;;;;;-3.22;100.00;100631.14;109483;1253;74683;-56
2024/03/10 00:39:56;;;;;;;;;;;;;;;-3.21;100.00;100632.10;109580;1251;65944;-54
2024/03/10 00:42:24;;;;;;;;;;;;;;;-3.19;100.00;100635.00;109514;1251;72680;-54
2024/03/10 00:44:51;;;;;;;;;;;;;;;-3.14;100.00;100631.91;109545;1250;60484;-55
2024/03/10 00:47:20;;;;;;;;;;;;;;;-3.10;100.00;100635.04;109572;1250;59800;-56
2024/03/10 00:49:49;;;;;;;;;;;;;;;-3.06;100.00;100630.07;109525;1251;75469;-55
2024/03/10 00:52:17;;;;;;;;;;;;;;;-3.01;100.00;100628.40;109551;1253;65609;-54
2024/03/10 00:54:44;;;;;;;;;;;;;;;-2.96;100.00;100629.50;109585;1251;71720;-55
2024/03/10 00:57:12;;;;;;;;;;;;;;;-2.93;100.00;100630.67;109577;1251;58885;-55
2024/03/10 00:59:39;;;;;;;;;;;;;;;-2.86;100.00;100626.86;109484;1251;60671;-54
2024/03/10 01:02:07;;;;;;;;;;;;;;;-2.81;100.00;100624.55;109592;1251;73369;-56
2024/03/10 01:04:34;;;;;;;;;;;;;;;-2.76;100.00;100625.94;109577;1251;65940;-55
2024/03/10 01:07:02;;;;;;;;;;;;;;;-2.71;100.00;100617.85;109564;1251;70108;-56
2024/03/10 01:09:30;;;;;;;;;;;;;;;-2.63;100.00;100617.57;109474;1251;60464;-55
2024/03/10 01:11:58;;;;;;;;;;;;;;;-2.54;100.00;100623.51;109478;1254;58933;-54
2024/03/10 01:14:26;;;;;;;;;;;;;;;-2.50;100.00;100627.17;109617;1251;74614;-54
2024/03/10 01:16:53;;;;;;;;;;;;;;;-2.51;100.00;100626.35;109562;1251;67313;-54
2024/03/10 01:19:21;;;;;;;;;;;;;;;-2.52;100.00;100624.55;109522;1251;72341;-60
2024/03/10 01:21:48;;;;;;;;;;;;;;;-2.51;100.00;100624.16;109489;1254;58953;-55
2024/03/10 01:24:16;;;;;;;;;;;;;;;-2.49;100.00;100626.78;109614;1251;59879;-55
2024/03/10 01:26:44;;;;;;;;;;;;;;;-2.48;100.00;100631.14;109601;1251;74644;-55
2024/03/10 01:29:11;;;;;;;;;;;;;;;-2.49;100.00;100626.11;109570;1250;66939;-56
2024/03/10 01:31:39;;;;;;;;;;;;;;;-2.51;100.00;100615.98;109529;1251;72692;-55
2024/03/10 01:34:06;;;;;;;;;;;;;;;-2.55;100.00;100612.34;109476;1252;60139;-55
2024/03/10 01:36:34;;;;;;;;;;;;;;;-2.60;100.00;100612.98;109500;1251;58950;-54
2024/03/10 01:39:01;;;;;;;;;;;;;;;-2.67;100.00;100612.02;109602;1251;73459;-54
2024/03/10 01:41:29;;;;;;;;;;;;;;;-2.72;100.00;100617.88;109563;1251;67504;-59
2024/03/10 01:43:57;;;;;;;;;;;;;;;-2.75;100.00;100621.66;109541;1251;71182;-54
2024/03/10 01:46:25;;;;;;;;;;;;;;;-2.79;100.00;100619.30;109537;1251;59398;-54
2024/03/10 01:48:52;;;;;;;;;;;;;;;-2.81;100.00;100624.85;109608;1251;59803;-54
2024/03/10 01:51:20;;;;;;;;;;;;;;;-2.81;100.00;100626.89;109265;1251;228574;-56
2024/03/10 01:53:48;;;;;;;;;;;;;;;-2.80;100.00;100626.52;109608;1251;66885;-54
2024/03/10 01:56:17;;;;;;;;;;;;;;;-2.79;100.00;100622.37;109567;1251;71129;-54
2024/03/10 01:58:44;;;;;;;;;;;;;;;-2.77;100.00;100627.22;109560;1251;58905;-54
2024/03/10 02:01:15;;;;;;;;;;;;;;;-2.74;100.00;100625.70;109581;1251;58986;-56
2024/03/10 02:03:43;;;;;;;;;;;;;;;-2.70;100.00;100621.70;109573;1251;74661;-54
2024/03/10 02:06:11;;;;;;;;;;;;;;;-2.65;100.00;100618.88;109589;1251;66258;-55
2024/03/10 02:08:39;;;;;;;;;;;;;;;-2.63;100.00;100616.36;109562;1251;72721;-54
2024/03/10 02:11:07;;;;;;;;;;;;;;;-2.61;100.00;100620.34;109557;1251;60396;-55
2024/03/10 02:13:36;;;;;;;;;;;;;;;-2.59;100.00;100620.06;109382;1251;59514;-55
2024/03/10 02:16:04;;;;;;;;;;;;;;;-2.58;100.00;100619.11;109609;1251;73462;-55
2024/03/10 02:18:32;;;;;;;;;;;;;;;-2.56;100.00;100614.73;109592;1251;65480;-54
2024/03/10 02:21:00;;;;;;;;;;;;;;;-2.52;100.00;100616.41;109556;1250;71421;-55
2024/03/10 02:23:43;;;;;;;;;;;;;;;-2.50;100.00;100617.30;109447;1251;58923;-59
2024/03/10 02:26:10;;;;;;;;;;;;;;;-2.48;100.00;100622.97;109468;1252;59380;-54
2024/03/10 02:28:57;;;;;;;;;;;;;;;-2.45;100.00;100621.09;109590;1251;74728;-55
2024/03/10 02:48:03;;;;;;;;;;;;;;;-2.35;100.00;100595.83;109599;1251;73415;-55
2024/03/10 02:50:30;;;;;;;;;;;;;;;-2.35;100.00;100593.45;109569;1250;59970;-55
2024/03/10 02:52:58;;;;;;;;;;;;;;;-2.33;100.00;100591.98;109567;1251;58896;-55
2024/03/10 02:55:26;;;;;;;;;;;;;;;-2.32;100.00;100593.58;109578;1251;74703;-55
2024/03/10 02:57:54;;;;;;;;;;;;;;;-2.27;100.00;100600.98;109578;1251;67683;-55
2024/03/10 03:00:21;;;;;;;;;;;;;;;-2.23;100.00;100610.89;109595;1251;72718;-55
2024/03/10 03:02:49;;;;;;;;;;;;;;;-2.15;100.00;100614.72;109525;1251;59057;-55
2024/03/10 03:05:17;;;;;;;;;;;;;;;-2.07;100.00;100600.63;109587;1250;60075;-56
2024/03/10 03:07:45;;;;;;;;;;;;;;;-2.02;100.00;100591.29;109517;1251;72413;-55
2024/03/10 03:10:13;;;;;;;;;;;;;;;-1.97;100.00;100583.64;109622;1250;66238;-55
2024/03/10 03:12:42;;;;;;;;;;;;;;;-1.96;100.00;100583.55;109608;1251;72815;-54
2024/03/10 03:15:09;;;;;;;;;;;;;;;-1.94;100.00;100579.02;109601;1251;58881;-55
2024/03/10 03:17:37;;;;;;;;;;;;;;;-1.93;100.00;100579.98;109545;1251;60028;-59
2024/03/10 03:20:15;;;;;;;;;;;;;;;-1.91;100.00;100582.92;109562;1250;73779;-55
2024/03/10 03:22:43;;;;;;;;;;;;;;;-1.89;100.00;100584.50;109567;1251;65520;-56
2024/03/10 03:25:11;;;;;;;;;;;;;;;-1.85;100.00;100583.04;109555;1251;71416;-55
2024/03/10 03:27:39;;;;;;;;;;;;;;;-1.79;100.00;100585.94;109579;1250;59302;-55
2024/03/10 03:30:07;;;;;;;;;;;;;;;-1.73;100.00;100593.70;109597;1251;59061;-55
2024/03/10 03:32:34;;;;;;;;;;;;;;;-1.66;100.00;100590.91;109450;1251;74638;-56
2024/03/10 03:35:02;;;;;;;;;;;;;;;-1.59;100.00;100578.86;109585;1251;66747;-57
2024/03/10 03:37:30;;;;;;;;;;;;;;;-1.53;100.00;100572.71;109482;1251;73525;-55
2024/03/10 03:39:58;;;;;;;;;;;;;;;-1.50;100.00;100578.48;109597;1250;59343;-54
2024/03/10 03:42:27;;;;;;;;;;;;;;;-1.48;100.00;100574.91;109628;1251;59846;-56
2024/03/10 03:44:55;;;;;;;;;;;;;;;-1.45;100.00;100575.76;109590;1250;74674;-55
2024/03/10 03:47:22;;;;;;;;;;;;;;;-1.43;100.00;100570.55;109537;1251;65296;-55
2024/03/10 03:49:50;;;;;;;;;;;;;;;-1.42;100.00;100569.58;109475;1251;72804;-55
2024/03/10 03:52:18;;;;;;;;;;;;;;;-1.40;100.00;100571.71;109549;1250;60488;-55
2024/03/10 03:54:46;;;;;;;;;;;;;;;-1.39;100.00;100567.23;109599;1250;60037;-55
2024/03/10 03:57:13;;;;;;;;;;;;;;;-1.36;100.00;100558.14;109584;1250;73691;-55
2024/03/10 03:59:41;;;;;;;;;;;;;;;-1.33;100.00;100559.64;109589;1250;65645;-55
2024/03/10 04:02:08;;;;;;;;;;;;;;;-1.31;100.00;100553.90;109470;1251;72708;-55
2024/03/10 04:04:36;;;;;;;;;;;;;;;-1.30;100.00;100558.77;109538;1250;59056;-55
2024/03/10 04:07:06;;;;;;;;;;;;;;;-1.26;100.00;100562.45;109497;1250;59270;-56
2024/03/10 04:09:34;;;;;;;;;;;;;;;-1.23;100.00;100558.27;109532;1251;73610;-55
2024/03/10 04:12:02;;;;;;;;;;;;;;;-1.21;100.00;100557.34;109544;1250;65734;-55
2024/03/10 04:14:30;;;;;;;;;;;;;;;-1.21;100.00;100556.65;109442;1251;72742;-56
2024/03/10 04:16:58;;;;;;;;;;;;;;;-1.22;100.00;100560.94;109471;1251;60203;-55
2024/03/10 04:19:25;;;;;;;;;;;;;;;-1.22;100.00;100577.86;109477;1251;60352;-55
2024/03/10 04:21:54;;;;;;;;;;;;;;;-1.19;100.00;100581.30;109536;1250;74704;-54
2024/03/10 04:24:22;;;;;;;;;;;;;;;-1.16;100.00;100585.33;109507;1251;66927;-55
2024/03/10 04:26:49;;;;;;;;;;;;;;;-1.11;100.00;100589.80;109549;1251;71368;-54
2024/03/10 04:29:17;;;;;;;;;;;;;;;-1.08;100.00;100588.04;109456;1251;59113;-58
2024/03/10 04:31:45;;;;;;;;;;;;;;;-1.07;100.00;100586.79;109486;1251;59789;-55
2024/03/10 04:34:13;;;;;;;;;;;;;;;-1.06;100.00;100581.10;109524;1251;73423;-54
2024/03/10 04:36:40;;;;;;;;;;;;;;;-1.05;100.00;100569.77;109615;1250;65479;-56
2024/03/10 04:39:09;;;;;;;;;;;;;;;-1.04;100.00;100569.83;109515;1250;72719;-59
2024/03/10 04:41:37;;;;;;;;;;;;;;;-1.02;100.00;100573.81;109550;1250;59300;-54
2024/03/10 04:44:05;;;;;;;;;;;;;;;-0.98;100.00;100568.10;109525;1251;59001;-55
2024/03/10 04:46:35;;;;;;;;;;;;;;;-0.93;100.00;100569.31;109572;1250;73431;-55
2024/03/10 04:49:03;;;;;;;;;;;;;;;-0.87;100.00;100568.44;109546;1250;68999;-55
2024/03/10 04:51:32;;;;;;;;;;;;;;;-0.83;100.00;100567.63;109552;1250;72780;-55
2024/03/10 04:53:59;;;;;;;;;;;;;;;-0.81;100.00;100568.84;109498;1251;60091;-55
2024/03/10 04:56:27;;;;;;;;;;;;;;;-0.79;100.00;100575.21;109545;1251;59268;-56
2024/03/10 04:58:54;;;;;;;;;;;;;;;-0.76;100.00;100568.36;109655;1251;74697;-55
2024/03/10 05:01:22;;;;;;;;;;;;;;;-0.73;100.00;100567.96;109555;1250;67168;-60
2024/03/10 05:03:50;;;;;;;;;;;;;;;-0.69;100.00;100567.19;109636;1250;72703;-54
2024/03/10 05:06:17;;;;;;;;;;;;;;;-0.64;100.00;100569.80;109587;1250;58926;-55
2024/03/10 05:08:46;;;;;;;;;;;;;;;-0.61;100.00;100570.22;109544;1251;59892;-56
2024/03/10 05:11:15;;;;;;;;;;;;;;;-0.55;100.00;100570.36;109669;1250;74715;-55
2024/03/10 05:13:43;;;;;;;;;;;;;;;-0.50;100.00;100571.36;109582;1250;65763;-59
2024/03/10 05:16:16;;;;;;;;;;;;;;;-0.45;100.00;100567.63;109619;1250;71304;-55
2024/03/10 05:18:43;;;;;;;;;;;;;;;-0.42;100.00;100566.71;109573;1250;58942;-55
2024/03/10 05:21:11;;;;;;;;;;;;;;;-0.40;100.00;100566.75;109641;1250;59446;-55
2024/03/10 05:23:38;;;;;;;;;;;;;;;-0.36;100.00;100565.98;109547;1250;73412;-60
2024/03/10 05:26:06;;;;;;;;;;;;;;;-0.33;100.00;100562.48;109570;1250;65934;-56
2024/03/10 05:28:33;;;;;;;;;;;;;;;-0.31;100.00;100557.45;109410;1251;70702;-56
2024/03/10 05:31:01;;;;;;;;;;;;;;;-0.33;100.00;100560.29;109465;1251;60158;-55
2024/03/10 05:33:30;;;;;;;;;;;;;;;-0.33;100.00;100562.73;109455;1251;59071;-59
2024/03/10 05:35:58;;;;;;;;;;;;;;;-0.35;100.00;100553.45;109494;1251;73389;-56
2024/03/10 05:38:26;;;;;;;;;;;;;;;-0.34;100.00;100553.73;109513;1251;65665;-55
2024/03/10 05:40:53;;;;;;;;;;;;;;;-0.34;100.00;100551.50;109482;1250;71439;-56
2024/03/10 05:43:21;;;;;;;;;;;;;;;-0.32;100.00;100552.56;109455;1250;58972;-58
2024/03/10 05:45:48;;;;;;;;;;;;;;;-0.29;100.00;100552.48;109472;1251;59158;-55
2024/03/10 05:48:18;;;;;;;;;;;;;;;-0.23;100.00;100553.46;109528;1250;73410;-56
2024/03/10 05:50:46;;;;;;;;;;;;;;;-0.18;100.00;100552.48;109543;1250;66075;-54
2024/03/10 05:53:13;;;;;;;;;;;;;;;-0.13;100.00;100547.84;109501;1251;70413;-54
2024/03/10 05:55:41;;;;;;;;;;;;;;;-0.08;100.00;100543.37;109399;1251;59405;-58
2024/03/10 05:58:08;;;;;;;;;;;;;;;-0.03;100.00;100546.09;109611;1250;59008;-55
2024/03/10 06:00:36;;;;;;;;;;;;;;;0.06;100.00;100546.48;109542;1250;74746;-56
2024/03/10 06:03:04;;;;;;;;;;;;;;;0.14;100.00;100543.70;109619;1250;66909;-55
2024/03/10 06:05:32;;;;;;;;;;;;;;;0.21;100.00;100537.73;109528;1250;72789;-57
2024/03/10 06:08:00;;;;;;;;;;;;;;;0.31;100.00;100534.47;109561;1250;58966;-55
2024/03/10 06:10:28;;;;;;;;;;;;;;;0.40;100.00;100537.23;109517;1250;59867;-54
2024/03/10 06:12:56;;;;;;;;;;;;;;;0.48;100.00;100536.11;109546;1251;74739;-55
2024/03/10 06:15:23;;;;;;;;;;;;;;;0.58;100.00;100539.16;109481;1251;65708;-56
2024/03/10 06:18:03;;;;;;;;;;;;;;;0.68;100.00;100539.31;109492;1252;73191;-55
2024/03/10 06:26:04;;;;;;;;;;;;;;;1.01;100.00;100533.13;109426;1250;73821;-55
2024/03/10 06:28:32;;;;;;;;;;;;;;;1.10;100.00;100526.27;109492;1251;65653;-54
2024/03/10 06:31:00;;;;;;;;;;;;;;;1.21;100.00;100524.06;109434;1250;72637;-55
2024/03/10 06:33:27;;;;;;;;;;;;;;;1.31;100.00;100520.55;109511;1250;59294;-54
2024/03/10 06:35:55;;;;;;;;;;;;;;;1.41;100.00;100523.91;109498;1250;59010;-55
2024/03/10 06:38:22;;;;;;;;;;;;;;;1.50;100.00;100517.37;109441;1251;74697;-55
2024/03/10 06:40:50;;;;;;;;;;;;;;;1.58;100.00;100511.98;109497;1250;67530;-59
2024/03/10 06:43:17;;;;;;;;;;;;;;;1.67;100.00;100513.69;109436;1251;71420;-56
2024/03/10 06:45:45;;;;;;;;;;;;;;;1.74;100.00;100513.70;109430;1251;59293;-56
2024/03/10 06:48:13;;;;;;;;;;;;;;;1.79;100.00;100509.45;109486;1251;58970;-54
2024/03/10 06:50:41;;;;;;;;;;;;;;;1.86;100.00;100507.77;109505;1250;74669;-55
2024/03/10 06:53:13;;;;;;;;;;;;;;;1.90;100.00;100504.35;109325;1250;65365;-55
2024/03/10 06:55:41;;;;;;;;;;;;;;;1.97;100.00;100503.11;109441;1251;72668;-55
2024/03/10 06:58:10;;;;;;;;;;;;;;;2.04;100.00;100499.96;109488;1250;60392;-55
2024/03/10 07:00:39;;;;;;;;;;;;;;;2.15;100.00;100501.15;109482;1251;61709;-55
2024/03/10 07:03:07;;;;;;;;;;;;;;;2.31;100.00;100500.73;109408;1250;74702;-55
2024/03/10 07:05:35;;;;;;;;;;;;;;;2.54;100.00;100501.79;109417;1251;69323;-55
2024/03/10 07:08:03;;;;;;;;;;;;;;;2.72;100.00;100500.98;109392;1251;72968;-57
2024/03/10 07:10:31;;;;;;;;;;;;;;;2.91;100.00;100500.44;109409;1251;59036;-55
2024/03/10 07:13:00;;;;;;;;;;;;;;;3.14;100.00;100501.59;109536;1251;59916;-58
2024/03/10 07:15:28;;;;;;;;;;;;;;;3.36;100.00;100496.52;109477;1253;73444;-55
2024/03/10 07:17:56;;;;;;;;;;;;;;;3.46;100.00;100495.45;109526;1250;66165;-56
2024/03/10 07:20:24;;;;;;;;;;;;;;;3.52;100.00;100495.65;109466;1251;72674;-56
2024/03/10 07:22:53;;;;;;;;;;;;;;;3.62;100.00;100490.45;109500;1251;59319;-55
2024/03/10 07:25:24;;;;;;;;;;;;;;;3.76;100.00;100489.27;109493;1251;59483;-56
2024/03/10 07:27:51;;;;;;;;;;;;;;;3.86;100.00;100485.83;109513;1250;74721;-55
2024/03/10 07:30:19;;;;;;;;;;;;;;;3.97;100.00;100485.72;109526;1250;65986;-55
2024/03/10 07:32:46;;;;;;;;;;;;;;;4.05;100.00;100479.32;109498;1250;71452;-56
2024/03/10 07:35:14;;;;;;;;;;;;;;;4.09;100.00;100479.81;109464;1251;59283;-60
2024/03/10 07:37:43;;;;;;;;;;;;;;;4.14;100.00;100479.75;109483;1251;58890;-56
2024/03/10 07:40:17;;;;;;;;;;;;;;;4.24;100.00;100475.44;109522;1251;73408;-56
2024/03/10 07:42:45;;;;;;;;;;;;;;;4.33;100.00;100474.91;109494;1251;65742;-55
2024/03/10 07:45:13;;;;;;;;;;;;;;;4.48;100.00;100470.85;109489;1251;72698;-56
2024/03/10 07:47:44;;;;;;;;;;;;;;;4.66;100.00;100471.34;109515;1251;59395;-56
2024/03/10 07:50:12;;;;;;;;;;;;;;;4.87;100.00;100469.18;109517;1251;59413;-55
2024/03/10 07:52:41;;;;;;;;;;;;;;;5.08;98.48;100468.23;109518;1251;74703;-60
2024/03/10 07:55:09;;;;;;;;;;;;;;;5.25;93.13;100460.17;109493;1250;68254;-55
2024/03/10 07:57:39;;;;;;;;;;;;;;;5.37;90.13;100456.27;109507;1250;74767;-56
2024/03/10 08:00:21;;;;;;;;;;;;;;;5.51;89.86;100454.92;109532;1251;61747;-55
2024/03/10 08:02:49;;;;;;;;;;;;;;;5.78;89.60;100454.80;109486;1251;59017;-55
2024/03/10 08:05:18;;;;;;;;;;;;;;;6.03;85.83;100452.95;109523;1250;73422;-55
2024/03/10 08:07:48;;;;;;;;;;;;;;;6.22;81.57;100452.50;109535;1251;66904;-56
2024/03/10 08:10:17;;;;;;;;;;;;;;;6.37;77.58;100460.80;109482;1251;72645;-55
2024/03/10 08:12:45;;;;;;;;;;;;;;;6.45;73.84;100456.30;109480;1251;59516;-56
2024/03/10 08:15:13;;;;;;;;;;;;;;;6.53;72.59;100446.16;109505;1251;59850;-55
2024/03/10 08:17:43;;;;;;;;;;;;;;;6.63;71.59;100443.82;109525;1250;74689;-55
2024/03/10 08:20:14;;;;;;;;;;;;;;;6.76;70.57;100444.94;109573;1251;65645;-56
2024/03/10 08:22:43;;;;;;;;;;;;;;;6.83;67.81;100447.46;109453;1250;71460;-56
2024/03/10 08:25:11;;;;;;;;;;;;;;;6.91;66.89;100451.36;109458;1250;59694;-55
2024/03/10 08:27:38;;;;;;;;;;;;;;;6.98;65.58;100450.40;109527;1251;58868;-55
2024/03/10 08:30:09;;;;;;;;;;;;;;;7.07;64.67;100443.70;109562;1250;73692;-55
2024/03/10 08:32:37;;;;;;;;;;;;;;;7.14;63.40;100431.90;109467;1251;66969;-59
2024/03/10 08:35:09;;;;;;;;;;;;;;;7.21;61.97;100430.64;109502;1251;71597;-55
2024/03/10 08:37:44;;;;;;;;;;;;;;;7.32;61.25;100433.16;109531;1250;59265;-57
2024/03/10 08:40:15;;;;;;;;;;;;;;;7.39;59.29;100425.52;109494;1250;60835;-56
2024/03/10 08:42:42;;;;;;;;;;;;;;;7.40;58.07;100412.83;109529;1251;74937;-56
2024/03/10 08:45:10;;;;;;;;;;;;;;;7.48;57.97;100410.36;109566;1251;65962;-55
2024/03/10 08:47:41;;;;;;;;;;;;;;;7.57;56.54;100404.10;109503;1251;72349;-56
2024/03/10 08:50:10;;;;;;;;;;;;;;;7.57;54.99;100401.00;109481;1253;59053;-56
2024/03/10 08:52:38;;;;;;;;;;;;;;;7.54;54.36;100402.52;109463;1251;60387;-56
2024/03/10 08:55:07;;;;;;;;;;;;;;;7.56;53.76;100399.41;109518;1251;73470;-55
2024/03/10 08:57:35;;;;;;;;;;;;;;;7.62;53.54;100402.27;109508;1250;65628;-56
2024/03/10 09:00:04;;;;;;;;;;;;;;;7.72;53.55;100407.90;109475;1251;72943;-55
2024/03/10 09:02:32;;;;;;;;;;;;;;;7.96;53.34;100404.83;109453;1251;61309;-56
2024/03/10 09:05:00;;;;;;;;;;;;;;;8.16;52.64;100403.27;109502;1251;59852;-57
2024/03/10 09:07:28;;;;;;;;;;;;;;;8.33;51.26;100399.84;109538;1251;74710;-56
2024/03/10 09:09:57;;;;;;;;;;;;;;;8.43;50.46;100402.96;109547;1251;65781;-56
2024/03/10 09:12:27;;;;;;;;;;;;;;;8.53;50.44;100400.69;109425;1253;73249;-56
2024/03/10 09:14:57;;;;;;;;;;;;;;;8.71;49.82;100395.59;109508;1251;59358;-54
2024/03/10 09:17:25;;;;;;;;;;;;;;;8.88;48.90;100394.23;109487;1250;62439;-55
2024/03/10 09:19:52;;;;;;;;;;;;;;;8.94;48.25;100396.16;109516;1250;74846;-58
2024/03/10 09:22:20;;;;;;;;;;;;;;;9.03;47.85;100396.73;109494;1251;69111;-56
2024/03/10 09:24:48;;;;;;;;;;;;;;;9.08;46.96;100391.70;109501;1251;72768;-55
2024/03/10 09:27:19;;;;;;;;;;;;;;;9.10;47.07;100389.33;109464;1251;59433;-56
2024/03/10 09:29:47;;;;;;;;;;;;;;;9.23;46.92;100380.39;109519;1251;58880;-56
2024/03/10 09:32:15;;;;;;;;;;;;;;;9.32;46.29;100376.77;109468;1250;76370;-57
2024/03/10 09:34:43;;;;;;;;;;;;;;;9.28;45.62;100376.33;109542;1250;70644;-55
2024/03/10 09:37:11;;;;;;;;;;;;;;;9.26;45.59;100370.11;109540;1250;74854;-55
2024/03/10 09:39:38;;;;;;;;;;;;;;;9.38;45.62;100364.76;109554;1251;61774;-55
2024/03/10 09:42:06;;;;;;;;;;;;;;;9.58;45.18;100362.06;109457;1250;59848;-55
2024/03/10 09:44:34;;;;;;;;;;;;;;;9.73;44.94;100359.91;109462;1251;73420;-55
2024/03/10 09:47:02;;;;;;;;;;;;;;;9.93;44.30;100354.88;109468;1251;67139;-55
2024/03/10 09:49:30;;;;;;;;;;;;;;;10.02;43.70;100347.45;109435;1251;73713;-55
2024/03/10 09:51:57;;;;;;;;;;;;;;;10.12;43.76;100346.55;109546;1251;61495;-59
2024/03/10 09:54:25;;;;;;;;;;;;;;;10.26;42.76;100347.34;109505;1251;63096;-56
2024/03/10 09:56:53;;;;;;;;;;;;;;;10.25;42.26;100344.57;109546;1250;76545;-56
2024/03/10 09:59:23;;;;;;;;;;;;;;;10.53;42.56;100340.63;109580;1250;67028;-55
2024/03/10 10:01:53;;;;;;;;;;;;;;;11.10;41.63;100340.34;109560;1251;74730;-55
2024/03/10 10:04:25;;;;;;;;;;;;;;;11.56;40.23;100337.20;109449;1251;59799;-55
2024/03/10 10:06:53;;;;;;;;;;;;;;;11.84;38.82;100341.04;109561;1250;61683;-55
2024/03/10 10:09:26;;;;;;;;;;;;;;;11.80;38.11;100339.78;109553;1251;75511;-55
2024/03/10 10:11:56;;;;;;;;;;;;;;;11.66;37.77;100334.40;109530;1251;68735;-58
2024/03/10 10:14:24;;;;;;;;;;;;;;;11.56;38.04;100331.33;109562;1251;74834;-55
2024/03/10 10:16:55;;;;;;;;;;;;;;;11.58;38.07;100325.95;109474;1250;62126;-55
2024/03/10 10:19:25;;;;;;;;;;;;;;;11.52;37.29;100322.26;109539;1251;59614;-54
2024/03/10 10:21:53;;;;;;;;;;;;;;;11.41;37.61;100315.89;109498;1251;74678;-55
2024/03/10 10:24:20;;;;;;;;;;;;;;;11.53;37.28;100312.71;109551;1251;67037;-55
2024/03/10 10:27:03;;;;;;;;;;;;;;;11.65;37.08;100309.11;109569;1250;74764;-55
2024/03/10 10:29:47;;;;;;;;;;;;;;;11.84;36.79;100302.77;109485;1251;60984;-58
2024/03/10 10:32:15;;;;;;;;;;;;;;;12.19;37.09;100300.52;109511;1251;59773;-56
2024/03/10 10:34:42;;;;;;;;;;;;;;;12.57;36.15;100296.77;109387;1251;76167;-55
2024/03/10 10:37:12;;;;;;;;;;;;;;;12.58;35.03;100290.65;109496;1251;67459;-55
2024/03/10 10:39:39;;;;;;;;;;;;;;;12.47;35.26;100289.84;109470;1251;75400;-55
2024/03/10 10:42:07;;;;;;;;;;;;;;;12.58;35.66;100283.09;109474;1251;61182;-54
2024/03/10 10:44:48;;;;;;;;;;;;;;;12.71;35.16;100277.70;109460;1251;61887;-55
2024/03/10 10:47:16;;;;;;;;;;;;;;;12.69;35.18;100274.13;109493;1250;76632;-59
2024/03/10 10:49:44;;;;;;;;;;;;;;;12.54;34.88;100268.64;109444;1250;66932;-55
2024/03/10 10:52:12;;;;;;;;;;;;;;;12.31;35.09;100269.34;109457;1251;72841;-55
2024/03/10 10:54:40;;;;;;;;;;;;;;;12.20;35.73;100257.50;109477;1251;60243;-55
2024/03/10 10:57:10;;;;;;;;;;;;;;;12.24;35.80;100257.24;109539;1251;61274;-55
2024/03/10 10:59:40;;;;;;;;;;;;;;;12.25;35.29;100248.89;109465;1255;75529;-56
2024/03/10 11:02:08;;;;;;;;;;;;;;;12.12;35.42;100247.09;109532;1251;68092;-55
2024/03/10 11:04:38;;;;;;;;;;;;;;;11.99;35.62;100239.86;109454;1252;73460;-56
2024/03/10 11:07:06;;;;;;;;;;;;;;;11.84;35.72;100232.18;109378;1251;61915;-55
2024/03/10 11:09:36;;;;;;;;;;;;;;;11.67;36.03;100228.10;109439;1250;62068;-55
2024/03/10 11:12:16;;;;;;;;;;;;;;;11.57;36.36;100230.37;109484;1256;76822;-55
2024/03/10 11:14:44;;;;;;;;;;;;;;;11.53;36.44;100228.69;109447;1251;65864;-55
2024/03/10 11:17:13;;;;;;;;;;;;;;;11.36;36.37;100229.36;109447;1254;75565;-58
2024/03/10 11:19:42;;;;;;;;;;;;;;;11.14;36.70;100231.17;109482;1251;62556;-55
2024/03/10 11:22:10;;;;;;;;;;;;;;;10.98;37.18;100228.36;109482;1251;62736;-57
2024/03/10 11:24:39;;;;;;;;;;;;;;;10.90;37.58;100233.36;109525;1250;75593;-55
2024/03/10 11:27:26;;;;;;;;;;;;;;;10.80;37.75;100230.34;109460;1251;68225;-54
2024/03/10 11:29:53;;;;;;;;;;;;;;;10.68;38.08;100228.48;109517;1251;76210;-54
2024/03/10 11:32:30;;;;;;;;;;;;;;;10.57;38.43;100228.61;109448;1251;61112;-56
2024/03/10 11:34:59;;;;;;;;;;;;;;;10.47;38.91;100231.42;109501;1251;61176;-55
2024/03/10 11:37:27;;;;;;;;;;;;;;;10.37;38.98;100231.21;109512;1251;75638;-55
2024/03/10 11:39:56;;;;;;;;;;;;;;;10.23;39.34;100233.98;109532;1251;65281;-54
2024/03/10 11:42:23;;;;;;;;;;;;;;;10.09;39.56;100233.63;109395;1251;74821;-56
2024/03/10 11:44:52;;;;;;;;;;;;;;;9.96;39.84;100235.95;109438;1251;60183;-56
2024/03/10 11:47:23;;;;;;;;;;;;;;;9.86;40.10;100234.08;109486;1251;62044;-56
2024/03/10 11:49:51;;;;;;;;;;;;;;;9.75;40.37;100230.67;109534;1251;75567;-55
2024/03/10 11:52:20;;;;;;;;;;;;;;;9.63;40.73;100232.35;109468;1251;67649;-55
2024/03/10 11:54:55;;;;;;;;;;;;;;;9.51;40.82;100229.27;109438;1251;74592;-55
2024/03/10 11:57:24;;;;;;;;;;;;;;;9.38;41.22;100230.67;109472;1250;61341;-55
2024/03/10 11:59:53;;;;;;;;;;;;;;;9.31;41.54;100233.15;109497;1251;60510;-55
2024/03/10 12:02:25;;;;;;;;;;;;;;;9.23;41.72;100235.35;109514;1251;74719;-54
2024/03/10 12:04:54;;;;;;;;;;;;;;;9.13;41.73;100233.58;109434;1251;67822;-55
2024/03/10 12:07:25;;;;;;;;;;;;;;;8.98;42.13;100230.27;109491;1251;74804;-53
2024/03/10 12:09:53;;;;;;;;;;;;;;;8.76;42.82;100226.80;109433;1251;60473;-54
2024/03/10 12:12:28;;;;;;;;;;;;;;;8.61;43.12;100232.38;109479;1251;59015;-58
2024/03/10 12:14:57;;;;;;;;;;;;;;;8.51;43.60;100232.95;109450;1251;73615;-54
2024/03/10 12:17:24;;;;;;;;;;;;;;;8.45;44.09;100223.34;109487;1251;65787;-56
2024/03/10 12:19:52;;;;;;;;;;;;;;;8.45;44.50;100226.09;109455;1251;75582;-54
2024/03/10 12:22:20;;;;;;;;;;;;;;;8.47;44.72;100225.41;109444;1251;60381;-58
2024/03/10 12:24:48;;;;;;;;;;;;;;;8.51;44.94;100227.29;109482;1250;61817;-55
2024/03/10 12:27:15;;;;;;;;;;;;;;;8.57;44.68;100225.64;109487;1251;75630;-54
2024/03/10 12:29:44;;;;;;;;;;;;;;;8.65;44.30;100221.52;109472;1251;69071;-53
2024/03/10 12:32:14;;;;;;;;;;;;;;;8.85;44.37;100223.92;109487;1251;72740;-54
2024/03/10 12:34:44;;;;;;;;;;;;;;;9.16;42.61;100221.59;109430;1251;60162;-54
2024/03/10 12:37:12;;;;;;;;;;;;;;;9.45;41.71;100217.26;109454;1251;58901;-54
2024/03/10 12:39:40;;;;;;;;;;;;;;;9.73;40.82;100217.99;109496;1251;77432;-54
2024/03/10 12:42:07;;;;;;;;;;;;;;;9.98;40.02;100212.80;109540;1250;68758;-53
2024/03/10 12:44:35;;;;;;;;;;;;;;;10.18;39.17;100208.29;109482;1251;74254;-58
2024/03/10 12:47:03;;;;;;;;;;;;;;;10.26;38.49;100210.14;109441;1254;60286;-54
2024/03/10 12:49:31;;;;;;;;;;;;;;;10.29;37.98;100208.74;109505;1250;61997;-56
2024/03/10 12:51:59;;;;;;;;;;;;;;;10.26;37.92;100211.64;109521;1250;76639;-54
2024/03/10 12:54:26;;;;;;;;;;;;;;;10.15;37.57;100217.33;109502;1251;68076;-58